Time;durP1;ratioP1;P1;durP2;ratioP2;P2;SDS_P1;SDS_P2;PMS_P1;PMS_P2;Temp;Humidity;BMP_temperature;BMP_pressure;BME280_temperature;BME280_humidity;BME280_pressure;Samples;Min_cycle;Max_cycle;Signal;HPM_P1;HPM_P2
2022/02/14 00:00:06;;;;;;;13.47;5.97;;;6.80;72.00;;;;;;5084863;28;20476;-83
2022/02/14 00:02:33;;;;;;;14.40;5.97;;;6.90;71.80;;;;;;5072191;28;20454;-83
2022/02/14 00:05:02;;;;;;;11.27;5.87;;;6.90;71.20;;;;;;5065740;28;20479;-83
2022/02/14 00:07:31;;;;;;;12.00;5.60;;;7.00;71.50;;;;;;5084248;28;20450;-83
2022/02/14 00:09:58;;;;;;;14.30;5.73;;;6.90;71.30;;;;;;5074315;28;20820;-83
2022/02/14 00:12:25;;;;;;;10.87;6.17;;;6.90;71.00;;;;;;5084456;28;20453;-83
2022/02/14 00:14:51;;;;;;;8.67;4.77;;;7.00;71.10;;;;;;5075813;28;20471;-83
2022/02/14 00:17:18;;;;;;;10.83;5.57;;;7.00;71.00;;;;;;5063771;28;20451;-83
2022/02/14 00:19:49;;;;;;;8.63;5.20;;;7.10;70.90;;;;;;5064892;28;20478;-83
2022/02/14 00:22:18;;;;;;;10.27;5.77;;;7.00;71.00;;;;;;5064272;28;20995;-83
2022/02/14 00:24:46;;;;;;;13.47;6.10;;;7.00;70.60;;;;;;5069853;28;20539;-83
2022/02/14 00:27:13;;;;;;;10.47;5.20;;;6.90;70.90;;;;;;5084649;28;20454;-83
2022/02/14 00:29:40;;;;;;;6.13;4.70;;;7.00;70.60;;;;;;5079258;28;20448;-83
2022/02/14 00:32:07;;;;;;;12.50;5.70;;;6.90;71.10;;;;;;5064599;28;20451;-83
2022/02/14 00:34:34;;;;;;;11.43;5.73;;;6.90;71.50;;;;;;5067207;28;20481;-83
2022/02/14 00:37:01;;;;;;;13.73;6.10;;;6.80;72.10;;;;;;5084308;28;20455;-83
2022/02/14 00:39:27;;;;;;;11.60;5.67;;;6.80;72.20;;;;;;5081608;28;21272;-83
2022/02/14 00:41:55;;;;;;;8.23;5.37;;;6.80;72.40;;;;;;5063763;28;20530;-83
2022/02/14 00:44:22;;;;;;;8.87;4.93;;;6.90;72.70;;;;;;5062115;28;20482;-83
2022/02/14 00:46:49;;;;;;;9.00;4.90;;;6.90;72.70;;;;;;5084085;28;20455;-83
2022/02/14 00:49:16;;;;;;;13.07;5.97;;;6.80;72.80;;;;;;5082788;28;20446;-83
2022/02/14 00:51:42;;;;;;;9.60;6.10;;;6.80;72.80;;;;;;5083445;28;20450;-83
2022/02/14 00:54:10;;;;;;;14.33;6.10;;;6.80;73.00;;;;;;5067039;28;20474;-83
2022/02/14 00:56:36;;;;;;;17.63;6.60;;;6.80;73.00;;;;;;5066823;28;20452;-83
2022/02/14 00:59:04;;;;;;;11.53;6.40;;;6.80;73.20;;;;;;5073147;28;20478;-83
2022/02/14 01:01:31;;;;;;;9.30;5.70;;;6.80;73.60;;;;;;5083367;28;20447;-83
2022/02/14 01:03:58;;;;;;;11.57;4.93;;;6.80;73.70;;;;;;5075449;28;20467;-83
2022/02/14 01:06:26;;;;;;;10.87;5.40;;;6.80;73.60;;;;;;5063618;28;20456;-83
2022/02/14 01:08:53;;;;;;;9.17;6.33;;;6.80;74.10;;;;;;5066197;28;20444;-83
2022/02/14 01:11:20;;;;;;;13.97;6.87;;;6.80;74.70;;;;;;5072035;28;20492;-83
2022/02/14 01:13:47;;;;;;;9.50;5.50;;;6.80;74.80;;;;;;5062898;28;20483;-83
2022/02/14 01:16:15;;;;;;;8.50;5.50;;;6.80;75.20;;;;;;5063330;28;20451;-83
2022/02/14 01:18:42;;;;;;;13.00;6.20;;;6.80;75.20;;;;;;5066454;28;20477;-84
2022/02/14 01:21:08;;;;;;;7.30;5.47;;;6.90;75.30;;;;;;5082847;28;20461;-83
2022/02/14 01:23:35;;;;;;;8.97;5.63;;;6.90;74.90;;;;;;5083247;28;20486;-83
2022/02/14 01:26:02;;;;;;;7.43;4.90;;;6.90;73.90;;;;;;5083755;28;20470;-84
2022/02/14 01:28:29;;;;;;;12.63;5.70;;;7.00;73.60;;;;;;5082037;28;20454;-83
2022/02/14 01:30:55;;;;;;;6.93;4.67;;;7.10;73.00;;;;;;5083102;28;20514;-83
2022/02/14 01:33:23;;;;;;;7.83;4.70;;;7.20;72.00;;;;;;5082856;28;20477;-83
2022/02/14 01:35:50;;;;;;;11.70;5.57;;;7.30;71.20;;;;;;5082682;28;20970;-83
2022/02/14 01:38:18;;;;;;;12.20;4.87;;;7.40;70.50;;;;;;5083189;28;20483;-83
2022/02/14 01:40:44;;;;;;;10.03;5.03;;;7.40;70.40;;;;;;5064835;28;20459;-83
2022/02/14 01:43:15;;;;;;;12.40;5.40;;;7.50;70.10;;;;;;5063481;28;20501;-83
2022/02/14 01:45:42;;;;;;;10.90;4.90;;;7.50;70.30;;;;;;5081122;28;20454;-84
2022/02/14 01:48:10;;;;;;;8.70;4.60;;;7.40;70.70;;;;;;5080966;28;20446;-82
2022/02/14 01:50:39;;;;;;;9.10;5.10;;;7.40;71.10;;;;;;5063937;28;20475;-83
2022/02/14 01:53:06;;;;;;;9.20;4.93;;;7.20;71.90;;;;;;5064233;28;20453;-83
2022/02/14 01:55:33;;;;;;;7.90;4.83;;;7.10;73.00;;;;;;5083892;28;20449;-83
2022/02/14 01:58:02;;;;;;;8.97;5.03;;;7.20;74.00;;;;;;5080369;28;20488;-83
2022/02/14 02:00:29;;;;;;;12.07;5.70;;;7.00;75.30;;;;;;5073246;28;20474;-83
2022/02/14 02:02:59;;;;;;;12.73;5.30;;;7.00;75.40;;;;;;5063399;28;20451;-83
2022/02/14 02:05:33;;;;;;;12.17;5.70;;;6.90;75.30;;;;;;5068626;28;20446;-83
2022/02/14 02:08:10;;;;;;;11.33;5.63;;;7.00;75.40;;;;;;5083691;28;20455;-83
2022/02/14 02:10:38;;;;;;;7.23;4.80;;;6.90;75.30;;;;;;5081211;28;20451;-83
2022/02/14 02:13:07;;;;;;;9.43;5.40;;;7.00;75.40;;;;;;5083048;28;20446;-83
2022/02/14 02:15:37;;;;;;;13.80;6.10;;;6.90;75.30;;;;;;5077769;28;20991;-83
2022/02/14 02:18:10;;;;;;;11.40;5.50;;;7.00;75.40;;;;;;5063226;28;20457;-83
2022/02/14 02:20:40;;;;;;;6.73;4.20;;;7.20;75.50;;;;;;5068025;28;20454;-84
2022/02/14 02:23:10;;;;;;;15.67;5.00;;;7.10;75.50;;;;;;5081937;28;20442;-83
2022/02/14 02:25:41;;;;;;;15.33;5.03;;;7.20;75.50;;;;;;5078105;28;20479;-83
2022/02/14 02:28:12;;;;;;;7.27;4.60;;;7.20;75.50;;;;;;5063276;28;20455;-82
2022/02/14 02:30:46;;;;;;;7.67;5.20;;;7.20;75.50;;;;;;5067363;28;20473;-83
2022/02/14 02:33:19;;;;;;;11.03;5.40;;;7.30;74.80;;;;;;5084038;28;20465;-84
2022/02/14 02:35:49;;;;;;;13.73;5.10;;;7.30;74.60;;;;;;5067558;28;20530;-83
2022/02/14 02:38:18;;;;;;;9.87;4.67;;;7.20;74.30;;;;;;5067518;28;20451;-83
2022/02/14 02:40:46;;;;;;;11.03;5.60;;;7.20;74.80;;;;;;5066903;28;20458;-84
2022/02/14 02:43:20;;;;;;;8.13;4.13;;;7.30;75.30;;;;;;5066651;28;20556;-83
2022/02/14 02:45:56;;;;;;;7.73;5.10;;;7.30;74.40;;;;;;5066712;28;20450;-83
2022/02/14 02:48:25;;;;;;;10.40;4.70;;;7.20;75.50;;;;;;5076404;28;20453;-83
2022/02/14 02:51:04;;;;;;;10.63;4.50;;;7.30;74.80;;;;;;5086593;28;20442;-83
2022/02/14 02:53:32;;;;;;;12.83;5.80;;;7.30;74.80;;;;;;5075044;28;20477;-83
2022/02/14 02:56:06;;;;;;;18.03;5.90;;;7.30;75.60;;;;;;5066829;28;20549;-83
2022/02/14 02:58:33;;;;;;;10.33;4.87;;;7.30;75.60;;;;;;5076358;28;20476;-83
2022/02/14 03:01:02;;;;;;;8.47;4.17;;;7.30;74.40;;;;;;5083152;28;20523;-83
2022/02/14 03:03:29;;;;;;;9.83;4.87;;;7.30;74.40;;;;;;5073843;28;20475;-84
2022/02/14 03:05:59;;;;;;;7.30;3.93;;;7.30;74.00;;;;;;5072180;28;20442;-83
2022/02/14 03:08:39;;;;;;;8.40;4.90;;;7.40;73.90;;;;;;5086259;28;20451;-83
2022/02/14 03:11:25;;;;;;;8.57;4.67;;;7.30;73.80;;;;;;5077938;28;20835;-84
2022/02/14 03:14:01;;;;;;;9.20;4.80;;;7.30;73.90;;;;;;5066618;28;20542;-83
2022/02/14 03:16:35;;;;;;;8.60;5.00;;;7.30;74.50;;;;;;5080752;28;20447;-83
2022/02/14 03:19:02;;;;;;;8.43;5.03;;;7.20;74.40;;;;;;5065182;28;20490;-82
2022/02/14 03:21:29;;;;;;;6.53;4.80;;;7.30;75.60;;;;;;5078832;28;20447;-82
2022/02/14 03:23:56;;;;;;;8.30;4.60;;;7.10;75.50;;;;;;5080579;28;20789;-82
2022/02/14 03:26:25;;;;;;;6.93;4.00;;;7.10;75.50;;;;;;5063498;28;20462;-81
2022/02/14 03:28:53;;;;;;;7.77;4.37;;;7.20;74.90;;;;;;5069141;28;20442;-82
2022/02/14 03:31:25;;;;;;;7.67;4.30;;;7.30;74.00;;;;;;5080076;28;20504;-84
2022/02/14 03:34:02;;;;;;;13.23;5.47;;;7.20;74.00;;;;;;5084399;28;20497;-83
2022/02/14 03:36:45;;;;;;;6.77;3.57;;;7.30;73.60;;;;;;5085751;28;20450;-84
2022/02/14 03:39:23;;;;;;;9.13;4.50;;;7.20;73.10;;;;;;5071119;28;20467;-84
2022/02/14 03:41:59;;;;;;;12.03;4.27;;;7.30;72.70;;;;;;5065017;28;20459;-84
2022/02/14 03:44:39;;;;;;;8.43;5.43;;;7.40;72.30;;;;;;5078215;28;20466;-83
2022/02/14 03:47:06;;;;;;;8.93;4.00;;;7.20;72.40;;;;;;5084928;28;20979;-83
2022/02/14 03:49:35;;;;;;;13.70;4.87;;;7.30;72.00;;;;;;5070366;28;20477;-83
2022/02/14 03:52:04;;;;;;;10.23;5.40;;;7.40;72.10;;;;;;5064816;28;20455;-83
2022/02/14 03:54:33;;;;;;;8.67;4.83;;;7.40;71.80;;;;;;5069709;28;20509;-83
2022/02/14 03:57:07;;;;;;;7.13;3.93;;;7.50;72.00;;;;;;5065521;28;20451;-84
2022/02/14 04:00:05;;;;;;;9.23;3.90;;;7.30;72.60;;;;;;5078398;28;20462;-86
2022/02/14 04:02:47;;;;;;;8.30;4.37;;;7.20;73.00;;;;;;5071435;28;20524;-86
2022/02/14 04:05:16;;;;;;;12.33;5.00;;;7.30;72.60;;;;;;5069816;28;20506;-82
2022/02/14 04:07:43;;;;;;;8.23;4.00;;;7.30;72.30;;;;;;5072802;28;20473;-84
2022/02/14 04:10:15;;;;;;;6.53;4.20;;;7.30;72.80;;;;;;5067926;28;20471;-83
2022/02/14 04:12:44;;;;;;;7.67;4.10;;;7.30;72.90;;;;;;5068745;28;20452;-84
2022/02/14 04:15:19;;;;;;;7.77;4.53;;;7.30;73.30;;;;;;5064709;28;20471;-84
2022/02/14 04:17:57;;;;;;;7.30;4.17;;;7.20;73.60;;;;;;5080538;28;20452;-83
2022/02/14 04:20:27;;;;;;;9.50;4.40;;;7.10;73.20;;;;;;5079832;28;20516;-84
2022/02/14 04:23:04;;;;;;;12.50;4.70;;;7.30;73.30;;;;;;5068812;28;20462;-83
2022/02/14 04:25:34;;;;;;;7.00;4.43;;;7.40;72.50;;;;;;5081943;28;20541;-83
2022/02/14 04:28:02;;;;;;;6.90;3.40;;;7.50;71.60;;;;;;5070617;28;20463;-83
2022/02/14 04:30:50;;;;;;;8.27;4.30;;;7.50;70.90;;;;;;5083926;28;20454;-83
2022/02/14 04:33:19;;;;;;;8.53;4.80;;;7.50;70.50;;;;;;5082334;28;20470;-83
2022/02/14 04:36:11;;;;;;;10.80;4.37;;;7.50;70.70;;;;;;5084427;28;20959;-82
2022/02/14 04:38:44;;;;;;;8.80;4.07;;;7.60;70.70;;;;;;5080053;28;20541;-83
2022/02/14 04:41:11;;;;;;;10.10;5.20;;;7.50;70.70;;;;;;5082319;28;20450;-83
2022/02/14 04:43:55;;;;;;;8.40;3.67;;;7.60;70.30;;;;;;5075174;28;20470;-83
2022/02/14 04:47:00;;;;;;;8.53;3.80;;;7.60;70.90;;;;;;5062451;28;20489;-82
2022/02/14 04:49:27;;;;;;;6.73;3.40;;;7.30;72.00;;;;;;4999046;28;20481;-82
2022/02/14 04:51:54;;;;;;;14.27;4.33;;;7.50;72.00;;;;;;5036800;28;20485;-83
2022/02/14 04:54:44;;;;;;;5.80;3.77;;;7.60;70.90;;;;;;5071171;28;20546;-83
2022/02/14 04:57:13;;;;;;;12.17;7.97;;;7.60;71.40;;;;;;5062940;28;20479;-85
2022/02/14 04:59:44;;;;;;;8.33;3.70;;;7.60;72.00;;;;;;5083595;28;20466;-82
2022/02/14 05:05:27;;;;;;;6.73;3.80;;;7.60;71.50;;;;;;5076206;28;20458;-83
2022/02/14 05:07:54;;;;;;;11.67;4.23;;;7.60;71.50;;;;;;5081176;28;20445;-84
2022/02/14 05:10:33;;;;;;;7.90;4.20;;;7.70;71.90;;;;;;5064095;28;20447;-84
2022/02/14 05:13:02;;;;;;;6.70;3.70;;;7.60;72.40;;;;;;5064341;28;20501;-82
2022/02/14 05:15:30;;;;;;;6.13;4.57;;;7.70;72.40;;;;;;5063143;28;20574;-83
2022/02/14 05:17:57;;;;;;;10.80;5.30;;;7.60;72.50;;;;;;5063718;28;20534;-82
2022/02/14 05:20:24;;;;;;;13.37;4.13;;;7.60;72.60;;;;;;5065592;28;20475;-82
2022/02/14 05:22:59;;;;;;;7.90;4.63;;;7.70;71.80;;;;;;5070537;28;20542;-84
2022/02/14 05:25:27;;;;;;;11.63;3.53;;;7.70;72.20;;;;;;5062291;28;20549;-84
2022/02/14 05:27:54;;;;;;;7.00;4.00;;;7.60;72.60;;;;;;5067640;28;20450;-83
2022/02/14 05:30:21;;;;;;;8.53;4.10;;;7.60;72.50;;;;;;5069281;28;20470;-83
2022/02/14 05:32:49;;;;;;;7.47;4.97;;;7.70;73.30;;;;;;5075037;28;20895;-84
2022/02/14 05:35:15;;;;;;;12.53;4.73;;;7.60;73.20;;;;;;5072768;28;21012;-84
2022/02/14 05:37:47;;;;;;;6.57;3.83;;;7.70;72.70;;;;;;5073718;28;20454;-84
2022/02/14 05:40:16;;;;;;;8.80;4.17;;;7.60;73.20;;;;;;5065877;28;20471;-84
2022/02/14 05:42:45;;;;;;;12.20;4.93;;;7.60;73.90;;;;;;5060173;28;20463;-84
2022/02/14 05:45:14;;;;;;;7.20;5.80;;;7.40;75.20;;;;;;5062734;28;20501;-84
2022/02/14 05:47:41;;;;;;;6.23;4.70;;;7.40;75.70;;;;;;5077791;28;20446;-84
2022/02/14 05:50:11;;;;;;;7.53;5.60;;;7.30;77.00;;;;;;5078431;28;20442;-84
2022/02/14 05:52:40;;;;;;;5.73;4.80;;;7.40;78.80;;;;;;5065310;28;20447;-83
2022/02/14 05:55:11;;;;;;;8.63;5.30;;;7.60;78.30;;;;;;5069826;28;20501;-83
2022/02/14 05:57:59;;;;;;;;;;;;;;;;;;;;;
2022/02/14 06:00:27;;;;;;;9.93;6.57;;;7.40;79.30;;;;;;5074490;28;20477;-83
2022/02/14 06:02:54;;;;;;;9.53;4.80;;;7.80;80.20;;;;;;5072631;28;20451;-84
2022/02/14 06:05:52;;;;;;;7.30;3.90;;;8.30;77.50;;;;;;5059584;28;20457;-83
2022/02/14 06:08:19;;;;;;;5.03;3.47;;;8.60;75.90;;;;;;5081548;28;20542;-82
2022/02/14 06:10:46;;;;;;;4.83;3.20;;;8.70;74.00;;;;;;5065505;28;20452;-83
2022/02/14 06:13:19;;;;;;;4.90;2.90;;;8.70;74.40;;;;;;5067520;28;20985;-84
2022/02/14 06:15:47;;;;;;;5.30;3.17;;;8.60;74.80;;;;;;5067942;28;20465;-83
2022/02/14 06:18:23;;;;;;;10.73;2.30;;;8.70;74.20;;;;;;5066655;28;20459;-83
2022/02/14 06:20:58;;;;;;;5.27;2.27;;;8.90;73.70;;;;;;5087159;28;21027;-83
2022/02/14 06:23:36;;;;;;;6.50;3.40;;;8.90;73.40;;;;;;5078179;28;20466;-84
2022/02/14 06:26:32;;;;;;;;;;;;;;;;;;;;;
2022/02/14 06:28:59;;;;;;;4.00;2.00;;;9.00;72.50;;;;;;5071486;28;20864;-83
2022/02/14 06:31:32;;;;;;;3.97;1.87;;;9.00;72.70;;;;;;5081290;28;20443;-83
2022/02/14 06:34:07;;;;;;;5.27;2.10;;;9.20;72.10;;;;;;5081194;28;20478;-85
2022/02/14 06:36:38;;;;;;;5.20;2.10;;;9.20;72.00;;;;;;5069019;28;20517;-84
2022/02/14 06:39:05;;;;;;;4.33;2.23;;;9.20;72.30;;;;;;5062921;28;21105;-83
2022/02/14 06:41:36;;;;;;;4.90;1.90;;;9.10;72.30;;;;;;5066826;28;20537;-82
2022/02/14 06:44:08;;;;;;;6.93;4.10;;;9.10;72.30;;;;;;5067197;28;20567;-83
2022/02/14 06:47:01;;;;;;;7.73;2.57;;;9.20;71.70;;;;;;5066508;28;20455;-83
2022/02/14 06:49:53;;;;;;;6.90;2.20;;;9.20;71.90;;;;;;5077113;28;20450;-83
2022/02/14 06:52:34;;;;;;;3.60;1.77;;;9.30;71.90;;;;;;5071374;28;20452;-84
2022/02/14 06:55:06;;;;;;;3.70;1.70;;;9.50;71.60;;;;;;5062888;28;20478;-83
2022/02/14 06:57:40;;;;;;;5.10;2.97;;;9.60;71.60;;;;;;5062549;28;20485;-83
2022/02/14 07:00:26;;;;;;;4.70;2.10;;;9.60;70.90;;;;;;5061978;28;20474;-83
2022/02/14 07:02:53;;;;;;;4.80;2.07;;;9.70;71.50;;;;;;5071463;28;20452;-84
2022/02/14 07:05:36;;;;;;;5.47;2.30;;;9.60;71.30;;;;;;5072263;28;20819;-84
2022/02/14 07:08:25;;;;;;;7.97;2.40;;;9.70;71.50;;;;;;5073736;28;20447;-83
2022/02/14 07:11:16;;;;;;;5.73;2.23;;;9.70;72.00;;;;;;5065302;28;20448;-83
2022/02/14 07:13:47;;;;;;;7.57;1.70;;;9.90;71.40;;;;;;5045316;28;20511;-83
2022/02/14 07:16:17;;;;;;;7.90;2.17;;;9.80;71.80;;;;;;5074997;28;20454;-83
2022/02/14 07:18:48;;;;;;;4.00;1.80;;;9.90;71.60;;;;;;5063863;28;20460;-84
2022/02/14 07:21:33;;;;;;;;;;;;;;;;;;;;;
2022/02/14 07:24:02;;;;;;;4.93;1.87;;;9.80;72.10;;;;;;5065801;28;20503;-83
2022/02/14 07:26:35;;;;;;;4.00;1.83;;;9.80;72.40;;;;;;5065875;28;20456;-83
2022/02/14 07:29:11;;;;;;;7.90;3.23;;;9.90;72.20;;;;;;5065983;28;20455;-83
2022/02/14 07:31:44;;;;;;;4.13;2.00;;;10.00;71.50;;;;;;5064911;28;20455;-83
2022/02/14 07:34:17;;;;;;;4.10;2.20;;;10.00;71.10;;;;;;5069616;28;20558;-83
2022/02/14 07:36:44;;;;;;;7.73;2.50;;;10.00;71.60;;;;;;5067948;28;20883;-84
2022/02/14 07:39:29;;;;;;;4.43;1.90;;;9.90;73.00;;;;;;5077029;28;20836;-83
2022/02/14 07:41:58;;;;;;;6.63;2.00;;;10.00;71.80;;;;;;5066544;28;20455;-84
2022/02/14 07:44:26;;;;;;;4.10;1.60;;;9.90;73.90;;;;;;5074895;28;20477;-82
2022/02/14 07:46:56;;;;;;;4.27;2.17;;;9.90;74.00;;;;;;5071235;28;20454;-82
2022/02/14 07:52:14;;;;;;;10.90;2.83;;;10.20;71.60;;;;;;5067227;28;20446;-84
2022/02/14 07:54:54;;;;;;;10.37;2.67;;;10.30;71.60;;;;;;5062505;28;20521;-83
2022/02/14 07:57:24;;;;;;;4.17;1.80;;;10.40;71.30;;;;;;5066484;28;20450;-83
2022/02/14 08:00:18;;;;;;;5.87;2.10;;;10.40;71.70;;;;;;5063484;28;20451;-84
2022/02/14 08:02:56;;;;;;;4.33;1.70;;;10.40;71.90;;;;;;5067763;28;20455;-84
2022/02/14 08:05:30;;;;;;;14.30;2.00;;;10.50;71.90;;;;;;5065681;28;20481;-84
2022/02/14 08:08:00;;;;;;;5.57;1.90;;;10.60;71.60;;;;;;5073262;28;20978;-84
2022/02/14 08:10:39;;;;;;;7.20;3.47;;;10.60;71.10;;;;;;5069043;28;20490;-83
2022/02/14 08:13:41;;;;;;;5.60;1.77;;;10.80;69.80;;;;;;5061442;28;20496;-85
2022/02/14 08:16:17;;;;;;;6.60;1.90;;;10.90;70.00;;;;;;5060893;28;20957;-83
2022/02/14 08:19:02;;;;;;;5.90;1.93;;;10.90;69.90;;;;;;5071789;28;20469;-85
2022/02/14 08:21:37;;;;;;;6.10;2.20;;;10.90;69.90;;;;;;5078175;28;20467;-84
2022/02/14 08:24:05;;;;;;;4.50;1.60;;;11.00;70.50;;;;;;5077236;28;20470;-83
2022/02/14 08:45:55;;;;;;;4.33;1.40;;;11.20;71.00;;;;;;4989199;28;20861;-84
2022/02/14 08:48:47;;;;;;;3.77;1.43;;;11.20;70.10;;;;;;5003132;28;20458;-84
2022/02/14 08:51:32;;;;;;;7.23;2.10;;;11.20;70.10;;;;;;5065075;28;20451;-84
2022/02/14 09:00:22;;;;;;;4.70;2.10;;;11.50;70.40;;;;;;5007130;28;20503;-84
2022/02/14 09:03:40;;;;;;;;;;;;;;;;;;;;;
2022/02/14 09:12:55;;;;;;;9.13;2.00;;;11.90;68.10;;;;;;5024873;28;20456;-84
2022/02/14 09:16:11;;;;;;;7.20;1.67;;;11.90;68.30;;;;;;5043052;28;20490;-84
2022/02/14 09:19:02;;;;;;;3.40;1.20;;;12.10;68.30;;;;;;4982910;28;20489;-83
2022/02/14 09:24:36;;;;;;;3.63;1.50;;;12.10;68.10;;;;;;5007840;28;20459;-84
2022/02/14 09:27:08;;;;;;;6.73;2.10;;;12.30;67.50;;;;;;5061366;28;20951;-84
2022/02/14 09:35:51;;;;;;;3.50;1.20;;;12.80;66.00;;;;;;5041212;28;20556;-85
2022/02/14 09:38:26;;;;;;;4.75;1.90;;;13.10;65.20;;;;;;5042711;28;20542;-83
2022/02/14 09:41:22;;;;;;;;;;;;;;;;;;;;;
2022/02/14 09:44:03;;;;;;;4.17;1.50;;;12.90;65.40;;;;;;5047640;28;20483;-84
2022/02/14 09:46:38;;;;;;;4.80;1.50;;;12.90;65.40;;;;;;5055103;28;20956;-82
2022/02/14 09:49:16;;;;;;;4.27;1.77;;;12.70;63.40;;;;;;5048847;28;20463;-84
2022/02/14 09:51:46;;;;;;;7.57;1.98;;;12.50;65.50;;;;;;5061273;28;20453;-86
2022/02/14 09:54:16;;;;;;;7.83;2.70;;;12.70;67.50;;;;;;5056090;28;20205;-84
2022/02/14 09:56:46;;;;;;;5.30;1.70;;;12.70;67.40;;;;;;5047553;28;20456;-84
2022/02/14 09:59:15;;;;;;;10.30;2.00;;;12.70;68.60;;;;;;5046998;28;20455;-84
2022/02/14 10:02:07;;;;;;;4.50;1.77;;;12.80;69.60;;;;;;5065621;28;20495;-84
2022/02/14 10:04:35;;;;;;;3.30;1.30;;;12.80;69.40;;;;;;5065493;28;20542;-82
2022/02/14 10:10:39;;;;;;;5.53;1.60;;;12.30;71.30;;;;;;5067510;28;20490;-83
2022/02/14 10:13:52;;;;;;;;;;;;;;;;;;;;;
2022/02/14 10:17:05;;;;;;;8.87;2.10;;;12.20;71.00;;;;;;5069207;28;20473;-83
2022/02/14 10:19:53;;;;;;;7.37;2.40;;;12.30;70.20;;;;;;5068773;28;20455;-82
2022/02/14 10:28:43;;;;;;;3.70;1.17;;;12.30;64.40;;;;;;5063493;28;20455;-84
2022/02/14 10:31:44;;;;;;;3.40;1.13;;;12.10;63.80;;;;;;5067196;28;20451;-86
2022/02/14 10:34:19;;;;;;;4.53;1.67;;;11.80;63.80;;;;;;5066375;28;20472;-83
2022/02/14 10:36:50;;;;;;;4.10;1.27;;;12.00;62.80;;;;;;5067658;28;20458;-85
2022/02/14 10:39:31;;;;;;;3.40;1.07;;;11.80;63.50;;;;;;5066038;28;20473;-82
2022/02/14 10:42:00;;;;;;;5.60;1.80;;;11.60;63.00;;;;;;5066892;28;20479;-84
2022/02/14 10:47:19;;;;;;;4.63;1.23;;;11.80;62.60;;;;;;5066294;28;20419;-84
2022/02/14 10:50:01;;;;;;;5.07;1.40;;;12.20;59.60;;;;;;5065232;28;20447;-82
2022/02/14 10:52:36;;;;;;;3.90;1.07;;;12.70;57.80;;;;;;5066545;28;20441;-83
2022/02/14 10:55:11;;;;;;;4.47;1.20;;;12.50;55.80;;;;;;5065926;28;20479;-83
2022/02/14 10:57:56;;;;;;;;;;;;;;;;;;;;;
2022/02/14 11:00:29;;;;;;;5.77;1.50;;;11.80;59.00;;;;;;5063761;28;20463;-83
2022/02/14 11:02:58;;;;;;;5.30;1.10;;;11.50;60.50;;;;;;5066774;28;20521;-84
2022/02/14 11:05:30;;;;;;;5.90;1.50;;;11.30;62.20;;;;;;5066225;28;20524;-82
2022/02/14 11:08:02;;;;;;;5.13;1.37;;;11.30;62.20;;;;;;5067445;28;20448;-82
2022/02/14 11:10:37;;;;;;;6.53;1.30;;;11.60;62.40;;;;;;5065878;28;20458;-82
2022/02/14 11:13:10;;;;;;;4.00;1.10;;;11.70;62.50;;;;;;5065711;28;20438;-81
2022/02/14 11:15:37;;;;;;;3.40;1.10;;;12.00;61.00;;;;;;5065032;28;20514;-83
2022/02/14 11:18:13;;;;;;;3.73;1.10;;;12.20;61.10;;;;;;5066999;28;20460;-83
2022/02/14 11:20:56;;;;;;;5.10;1.20;;;12.40;60.00;;;;;;5066025;28;20450;-83
2022/02/14 11:23:30;;;;;;;3.70;1.13;;;12.30;58.50;;;;;;5066065;28;20467;-82
2022/02/14 11:26:24;;;;;;;;;;;;;;;;;;;;;
2022/02/14 11:28:58;;;;;;;7.40;1.90;;;12.00;58.70;;;;;;5061988;28;20459;-85
2022/02/14 11:31:33;;;;;;;4.80;1.48;;;12.20;61.00;;;;;;5065358;28;20486;-82
2022/02/14 11:34:07;;;;;;;5.37;1.73;;;12.40;59.80;;;;;;5066751;28;20221;-83
2022/02/14 11:36:40;;;;;;;3.97;0.97;;;12.90;58.20;;;;;;5065716;28;20961;-82
2022/02/14 11:39:12;;;;;;;4.10;1.50;;;12.70;55.90;;;;;;5066245;28;20457;-83
2022/02/14 11:41:44;;;;;;;3.90;1.20;;;13.00;55.70;;;;;;5066544;28;20480;-83
2022/02/14 11:44:23;;;;;;;3.80;1.00;;;12.90;55.30;;;;;;5066669;28;20483;-83
2022/02/14 11:47:14;;;;;;;4.57;1.13;;;13.00;54.70;;;;;;5067659;28;20485;-83
2022/02/14 11:50:04;;;;;;;;;;;;;;;;;;;;;
2022/02/14 11:52:44;;;;;;;4.00;1.30;;;13.40;51.70;;;;;;5065483;28;20450;-83
2022/02/14 11:58:34;;;;;;;5.20;1.83;;;12.90;53.60;;;;;;5059249;28;20454;-85
2022/02/14 12:01:09;;;;;;;4.93;1.30;;;12.70;54.00;;;;;;5066711;28;20445;-84
2022/02/14 12:03:36;;;;;;;4.37;1.47;;;12.90;52.80;;;;;;5063555;28;20469;-82
2022/02/14 12:06:31;;;;;;;4.20;0.97;;;12.90;51.30;;;;;;5065422;28;21014;-84
2022/02/14 12:11:51;;;;;;;4.33;1.07;;;12.80;50.70;;;;;;5065639;28;20547;-84
2022/02/14 12:14:20;;;;;;;5.67;1.63;;;12.30;51.70;;;;;;5068089;28;20463;-82
2022/02/14 12:22:33;;;;;;;3.87;1.13;;;12.10;54.50;;;;;;5066431;28;20594;-83
2022/02/14 12:25:10;;;;;;;9.93;2.50;;;12.30;54.70;;;;;;5066855;28;20471;-83
2022/02/14 12:27:37;;;;;;;4.00;1.27;;;12.60;53.60;;;;;;5067376;28;20447;-83
2022/02/14 12:30:18;;;;;;;5.13;1.47;;;12.90;52.30;;;;;;5066106;28;20451;-82
2022/02/14 12:33:02;;;;;;;5.73;1.30;;;12.50;52.10;;;;;;5066342;28;20444;-82
2022/02/14 12:35:29;;;;;;;5.77;1.40;;;12.60;53.40;;;;;;5066684;28;20454;-83
2022/02/14 12:37:58;;;;;;;6.53;1.80;;;12.30;53.40;;;;;;5066125;28;20447;-83
2022/02/14 12:40:26;;;;;;;8.40;1.73;;;12.30;54.30;;;;;;5066166;28;20525;-83
2022/02/14 12:43:01;;;;;;;8.40;1.80;;;12.20;52.20;;;;;;5066161;28;20486;-84
2022/02/14 12:45:30;;;;;;;7.30;1.50;;;12.40;52.30;;;;;;5066591;28;20528;-83
2022/02/14 12:47:58;;;;;;;5.53;1.73;;;12.50;52.00;;;;;;5066747;28;20461;-83
2022/02/14 12:50:24;;;;;;;6.10;1.40;;;12.60;52.10;;;;;;5066316;28;20772;-83
2022/02/14 12:52:52;;;;;;;6.70;1.50;;;12.90;52.00;;;;;;5066218;28;20460;-84
2022/02/14 12:55:23;;;;;;;4.83;1.50;;;12.80;52.20;;;;;;5065645;28;20460;-83
2022/02/14 12:57:52;;;;;;;5.43;1.20;;;12.60;50.40;;;;;;5065980;28;20459;-84
2022/02/14 13:00:38;;;;;;;4.67;1.40;;;12.40;50.90;;;;;;5065075;28;20461;-83
2022/02/14 13:03:09;;;;;;;5.23;1.50;;;12.40;51.00;;;;;;5065599;28;20521;-83
2022/02/14 13:05:36;;;;;;;9.23;1.70;;;12.60;52.00;;;;;;5065499;28;20447;-83
2022/02/14 13:08:15;;;;;;;7.60;1.60;;;12.70;49.40;;;;;;5066106;28;20951;-84
2022/02/14 13:10:43;;;;;;;4.70;1.13;;;13.50;50.10;;;;;;5065087;28;20492;-83
2022/02/14 13:13:10;;;;;;;8.50;2.00;;;14.10;44.80;;;;;;5065509;28;20503;-84
2022/02/14 13:15:42;;;;;;;7.00;1.43;;;14.20;41.60;;;;;;5065871;28;20449;-83
2022/02/14 13:18:10;;;;;;;6.60;1.40;;;14.40;43.90;;;;;;5065205;28;20462;-83
2022/02/14 13:20:38;;;;;;;7.10;1.10;;;14.50;39.60;;;;;;5065003;28;20458;-83
2022/02/14 13:23:14;;;;;;;7.87;2.20;;;14.20;36.70;;;;;;5065687;28;20475;-86
2022/02/14 13:25:49;;;;;;;6.03;1.20;;;14.50;38.00;;;;;;5064660;28;20458;-85
2022/02/14 13:28:17;;;;;;;7.30;1.90;;;15.00;38.30;;;;;;5065280;28;20471;-86
2022/02/14 13:30:44;;;;;;;7.97;2.00;;;14.30;36.00;;;;;;5063842;28;20458;-83
2022/02/14 13:33:19;;;;;;;6.17;1.43;;;13.90;34.90;;;;;;5061969;28;20935;-83
2022/02/14 13:35:47;;;;;;;6.40;1.60;;;13.90;34.80;;;;;;5064919;28;20457;-83
2022/02/14 13:38:16;;;;;;;8.07;1.57;;;13.70;36.20;;;;;;5062729;28;20824;-83
2022/02/14 13:40:45;;;;;;;6.23;1.43;;;13.60;37.90;;;;;;5060060;28;20769;-83
2022/02/14 13:43:26;;;;;;;7.27;2.00;;;13.50;38.60;;;;;;5060756;28;20477;-85
2022/02/14 13:45:54;;;;;;;5.20;1.47;;;13.40;38.20;;;;;;5059887;28;20457;-84
2022/02/14 13:48:24;;;;;;;7.47;1.63;;;13.00;37.80;;;;;;5056731;28;20470;-86
2022/02/14 13:50:52;;;;;;;11.60;2.70;;;12.90;40.40;;;;;;5060878;28;20451;-84
2022/02/14 13:53:23;;;;;;;9.10;1.33;;;12.60;39.60;;;;;;5061085;28;20464;-82
2022/02/14 13:56:12;;;;;;;5.63;1.20;;;12.60;40.00;;;;;;5055249;28;20447;-81
2022/02/14 13:58:42;;;;;;;5.40;1.30;;;12.40;40.30;;;;;;5060400;28;20443;-84
2022/02/14 14:01:25;;;;;;;9.60;1.70;;;12.30;39.80;;;;;;5058598;28;20532;-83
2022/02/14 14:04:00;;;;;;;7.53;1.50;;;12.30;39.40;;;;;;5057794;28;20514;-84
2022/02/14 14:06:32;;;;;;;5.67;1.37;;;12.10;40.60;;;;;;5055837;28;20965;-84
2022/02/14 14:09:17;;;;;;;5.90;1.60;;;12.00;42.10;;;;;;5056817;28;20456;-84
2022/02/14 14:11:44;;;;;;;5.80;1.27;;;11.90;42.70;;;;;;5058060;28;20451;-85
2022/02/14 14:14:29;;;;;;;6.60;2.00;;;11.90;43.20;;;;;;5055867;28;20480;-84
2022/02/14 14:16:55;;;;;;;5.60;1.10;;;11.90;43.50;;;;;;5057252;28;20220;-84
2022/02/14 14:19:24;;;;;;;9.63;1.90;;;11.70;44.10;;;;;;5055128;28;20451;-84
2022/02/14 14:21:51;;;;;;;6.93;1.93;;;11.60;44.60;;;;;;5055292;28;20456;-84
2022/02/14 14:24:18;;;;;;;8.70;1.70;;;11.70;45.40;;;;;;5056101;28;20501;-85
2022/02/14 14:26:45;;;;;;;8.47;2.50;;;11.80;45.60;;;;;;5057155;28;20462;-84
2022/02/14 14:29:13;;;;;;;6.37;1.60;;;11.80;45.60;;;;;;5060613;28;20462;-84
2022/02/14 14:31:40;;;;;;;6.90;1.87;;;11.70;44.00;;;;;;5061786;28;20483;-84
2022/02/14 14:34:07;;;;;;;7.77;1.57;;;11.70;45.50;;;;;;5060311;28;20829;-85
2022/02/14 14:37:29;;;;;;;5.90;1.63;;;11.60;45.40;;;;;;5060855;28;20840;-91
2022/02/14 14:39:57;;;;;;;10.07;2.90;;;11.70;45.50;;;;;;5060872;28;20490;-83
2022/02/14 14:42:24;;;;;;;6.67;1.87;;;11.90;45.60;;;;;;5057947;28;20479;-84
2022/02/14 14:44:51;;;;;;;6.80;2.03;;;12.10;45.80;;;;;;5060093;28;20479;-84